createdAt,value
2018-05-03T00:01:54.779Z,9.70
2018-05-03T00:03:55.722Z,9.70
2018-05-03T00:05:57.617Z,9.70
2018-05-03T00:07:59.367Z,9.80
2018-05-03T00:10:00.292Z,9.70
2018-05-03T00:12:01.225Z,9.80
2018-05-03T00:14:02.128Z,9.70
2018-05-03T00:16:03.813Z,9.70
2018-05-03T00:18:05.135Z,9.70
2018-05-03T00:20:06.864Z,9.70
2018-05-03T00:22:08.607Z,9.70
2018-05-03T00:24:09.884Z,9.70
2018-05-03T00:26:10.845Z,9.70
2018-05-03T00:28:12.705Z,9.70
2018-05-03T00:30:13.738Z,9.80
2018-05-03T00:32:14.683Z,9.80
2018-05-03T00:34:15.649Z,9.80
2018-05-03T00:36:16.577Z,9.80
2018-05-03T00:38:17.541Z,9.80
2018-05-03T00:40:18.493Z,9.80
2018-05-03T00:42:19.429Z,9.80
2018-05-03T00:44:20.365Z,9.70
2018-05-03T00:46:21.317Z,9.80
2018-05-03T00:48:22.376Z,9.80
2018-05-03T00:50:23.290Z,9.70
2018-05-03T00:52:24.324Z,9.80
2018-05-03T00:54:37.485Z,9.70
2018-05-03T00:56:38.922Z,9.80
2018-05-03T00:58:40.030Z,9.70
2018-05-03T01:00:41.033Z,9.80
2018-05-03T01:02:41.981Z,9.70
2018-05-03T01:04:42.994Z,9.70
2018-05-03T01:06:43.952Z,9.70
2018-05-03T01:08:44.881Z,9.70
2018-05-03T01:10:45.820Z,9.70
2018-05-03T01:12:46.765Z,9.70
2018-05-03T01:14:47.749Z,9.70
2018-05-03T01:16:48.680Z,9.70
2018-05-03T01:18:49.642Z,9.70
2018-05-03T01:20:50.646Z,9.60
2018-05-03T01:22:51.744Z,9.60
2018-05-03T01:24:52.697Z,9.60
2018-05-03T01:26:53.660Z,9.60
2018-05-03T01:28:55.403Z,9.60
2018-05-03T01:30:56.324Z,9.60
2018-05-03T01:32:57.308Z,9.60
2018-05-03T01:37:40.046Z,9.50
2018-05-03T01:39:41.030Z,9.50
2018-05-03T01:41:41.986Z,9.50
2018-05-03T01:43:42.915Z,9.40
2018-05-03T01:45:44.590Z,9.40
2018-05-03T01:47:45.536Z,9.40
2018-05-03T01:49:46.541Z,9.40
2018-05-03T01:51:47.614Z,9.30
2018-05-03T01:53:49.365Z,9.20
2018-05-03T01:55:51.135Z,9.10
2018-05-03T01:57:52.884Z,9.10
2018-05-03T01:59:53.827Z,9.10
2018-05-03T02:01:54.817Z,9.10
2018-05-03T02:03:55.822Z,9.00
2018-05-03T02:05:56.796Z,9.00
2018-05-03T02:07:58.568Z,9.00
2018-05-03T02:09:59.552Z,9.00
2018-05-03T02:12:00.500Z,9.00
2018-05-03T02:14:01.510Z,9.00
2018-05-03T02:16:02.504Z,9.00
2018-05-03T02:18:03.461Z,9.00
2018-05-03T02:20:04.465Z,9.00
2018-05-03T02:22:05.798Z,9.00
2018-05-03T02:24:06.826Z,9.00
2018-05-03T02:26:08.636Z,8.90
2018-05-03T02:28:09.567Z,8.90
2018-05-03T02:30:10.554Z,9.00
2018-05-03T02:32:11.489Z,9.00
2018-05-03T02:34:12.442Z,9.10
2018-05-03T02:36:13.412Z,9.10
2018-05-03T02:38:14.353Z,9.10
2018-05-03T02:40:15.325Z,9.00
2018-05-03T02:42:17.145Z,9.00
2018-05-03T02:44:18.103Z,9.00
2018-05-03T02:46:19.054Z,9.00
2018-05-03T02:48:19.996Z,9.00
2018-05-03T02:50:20.934Z,9.00
2018-05-03T02:52:21.913Z,9.00
2018-05-03T02:54:23.674Z,9.00
2018-05-03T02:56:25.417Z,8.90
2018-05-03T02:58:39.161Z,8.90
2018-05-03T03:00:58.775Z,8.80
2018-05-03T03:03:19.074Z,8.70
2018-05-03T03:05:38.801Z,8.70
2018-05-03T03:08:09.650Z,8.70
2018-05-03T03:10:19.629Z,8.60
2018-05-03T03:12:34.739Z,8.70
2018-05-03T03:15:03.012Z,8.60
2018-05-03T03:17:22.543Z,8.60
2018-05-03T03:19:35.836Z,8.60
2018-05-03T03:21:55.877Z,8.60
2018-05-03T03:24:15.257Z,8.60
2018-05-03T03:29:39.418Z,8.60
2018-05-03T03:34:33.241Z,8.60
2018-05-03T03:36:35.143Z,8.50
2018-05-03T03:38:48.389Z,8.50
2018-05-03T03:41:01.790Z,8.50
2018-05-03T03:43:03.652Z,8.40
2018-05-03T03:45:05.473Z,8.20
2018-05-03T03:47:06.505Z,8.20
2018-05-03T03:49:08.526Z,8.20
2018-05-03T03:51:09.456Z,8.20
2018-05-03T03:53:10.560Z,8.20
2018-05-03T03:55:11.439Z,8.20
2018-05-03T03:57:12.361Z,8.10
2018-05-03T03:59:13.407Z,8.10
2018-05-03T04:01:14.312Z,8.10
2018-05-03T04:03:15.261Z,8.00
2018-05-03T04:05:16.188Z,8.00
2018-05-03T04:07:17.117Z,7.90
2018-05-03T04:09:18.057Z,8.00
2018-05-03T04:11:18.976Z,7.90
2018-05-03T04:13:20.641Z,8.00
2018-05-03T04:15:22.305Z,7.90
2018-05-03T04:17:36.360Z,7.90
2018-05-03T04:19:49.765Z,7.90
2018-05-03T04:24:41.005Z,8.10
2018-05-03T04:26:41.920Z,8.20
2018-05-03T04:28:42.880Z,8.30
2018-05-03T04:30:43.820Z,8.40
2018-05-03T04:32:44.745Z,8.50
2018-05-03T04:34:45.691Z,8.70
2018-05-03T04:36:46.629Z,8.80
2018-05-03T04:38:47.549Z,8.80
2018-05-03T04:40:49.217Z,9.00
2018-05-03T04:42:50.876Z,9.10
2018-05-03T04:44:52.533Z,9.20
2018-05-03T04:46:54.284Z,9.30
2018-05-03T04:48:55.151Z,9.20
2018-05-03T04:50:56.841Z,9.40
2018-05-03T04:52:57.780Z,9.30
2018-05-03T04:54:58.724Z,9.50
2018-05-03T04:56:59.650Z,9.50
2018-05-03T04:59:01.332Z,9.60
2018-05-03T05:01:02.273Z,9.50
2018-05-03T05:03:03.203Z,9.60
2018-05-03T05:05:04.873Z,9.70
2018-05-03T05:07:06.545Z,9.80
2018-05-03T05:09:07.485Z,9.80
2018-05-03T05:11:08.412Z,9.90
2018-05-03T05:13:10.069Z,10.00
2018-05-03T05:15:11.005Z,10.00
2018-05-03T05:17:11.930Z,10.10
2018-05-03T05:19:12.860Z,10.10
2018-05-03T05:21:13.789Z,10.20
2018-05-03T05:23:14.784Z,10.20
2018-05-03T05:25:16.381Z,10.50
2018-05-03T05:27:17.315Z,10.40
2018-05-03T05:29:18.976Z,10.60
2018-05-03T05:31:20.666Z,10.70
2018-05-03T05:33:21.580Z,10.60
2018-05-03T05:35:23.249Z,10.80
2018-05-03T05:37:24.923Z,10.90
2018-05-03T05:39:25.853Z,10.80
2018-05-03T05:41:27.530Z,11.00
2018-05-03T05:43:28.461Z,11.00
2018-05-03T05:45:30.129Z,11.20
2018-05-03T05:47:31.801Z,11.30
2018-05-03T05:49:32.730Z,11.30
2018-05-03T05:51:34.401Z,11.40
2018-05-03T05:53:36.074Z,11.50
2018-05-03T05:55:36.993Z,11.40
2018-05-03T05:57:37.930Z,11.50
2018-05-03T05:59:38.865Z,11.60
2018-05-03T06:01:39.793Z,11.70
2018-05-03T06:03:40.719Z,11.70
2018-05-03T06:05:41.649Z,11.90
2018-05-03T06:07:42.588Z,12.20
2018-05-03T06:09:43.506Z,12.30
2018-05-03T06:11:44.450Z,12.50
2018-05-03T06:13:45.373Z,12.60
2018-05-03T06:15:46.293Z,12.50
2018-05-03T06:17:47.209Z,12.60
2018-05-03T06:19:48.857Z,12.90
2018-05-03T06:21:50.522Z,13.00
2018-05-03T06:23:52.177Z,13.10
2018-05-03T06:25:53.090Z,13.00
2018-05-03T06:27:54.016Z,13.20
2018-05-03T06:29:54.933Z,13.50
2018-05-03T06:31:55.867Z,13.70
2018-05-03T06:33:57.519Z,13.60
2018-05-03T06:35:59.168Z,13.70
2018-05-03T06:38:00.089Z,13.70
2018-05-03T06:40:01.005Z,13.80
2018-05-03T06:42:01.919Z,13.80
2018-05-03T06:44:03.572Z,13.80
2018-05-03T06:46:04.497Z,13.80
2018-05-03T06:48:05.417Z,13.80
2018-05-03T06:50:07.078Z,14.10
2018-05-03T06:52:08.000Z,14.10
2018-05-03T06:54:08.916Z,14.00
2018-05-03T06:56:09.831Z,14.20
2018-05-03T06:58:10.769Z,14.00
2018-05-03T07:00:11.711Z,13.80
2018-05-03T07:02:12.627Z,13.80
2018-05-03T07:04:13.664Z,13.80
2018-05-03T07:06:14.509Z,14.00
2018-05-03T07:08:16.178Z,14.50
2018-05-03T07:10:17.096Z,14.40
2018-05-03T07:12:18.016Z,14.40
2018-05-03T07:14:18.936Z,14.90
2018-05-03T07:16:19.909Z,14.90
2018-05-03T07:18:20.798Z,15.30
2018-05-03T07:20:21.731Z,15.50
2018-05-03T07:22:23.429Z,16.00
2018-05-03T07:24:25.067Z,15.50
2018-05-03T07:26:25.976Z,15.50
2018-05-03T07:28:26.903Z,15.80
2018-05-03T07:30:27.825Z,16.00
2018-05-03T07:32:28.757Z,16.40
2018-05-03T07:34:29.679Z,16.60
2018-05-03T07:36:31.361Z,16.60
2018-05-03T07:38:32.308Z,16.60
2018-05-03T07:40:33.223Z,16.70
2018-05-03T07:42:34.145Z,16.60
2018-05-03T07:44:35.092Z,16.70
2018-05-03T07:46:36.021Z,16.70
2018-05-03T07:48:37.040Z,16.90
2018-05-03T07:50:37.885Z,17.00
2018-05-03T07:52:38.808Z,17.40
2018-05-03T07:54:40.473Z,17.70
2018-05-03T07:56:42.169Z,17.80
2018-05-03T07:58:43.812Z,17.20
2018-05-03T08:00:44.744Z,17.20
2018-05-03T08:02:45.664Z,17.40
2018-05-03T08:04:46.599Z,17.30
2018-05-03T08:06:47.518Z,17.30
2018-05-03T08:08:48.453Z,17.70
2018-05-03T08:10:49.376Z,18.00
2018-05-03T08:12:50.294Z,17.90
2018-05-03T08:14:51.233Z,17.90
2018-05-03T08:16:52.157Z,17.70
2018-05-03T08:18:53.109Z,17.50
2018-05-03T08:20:54.033Z,17.90
2018-05-03T08:22:54.953Z,17.80
2018-05-03T08:24:55.877Z,17.30
2018-05-03T08:26:57.533Z,17.70
2018-05-03T08:28:58.456Z,17.70
2018-05-03T08:30:59.380Z,17.80
2018-05-03T08:33:00.301Z,17.70
2018-05-03T08:35:01.226Z,18.10
2018-05-03T08:37:02.909Z,18.30
2018-05-03T08:39:03.876Z,18.20
2018-05-03T08:41:04.814Z,18.00
2018-05-03T08:43:05.745Z,17.80
2018-05-03T08:45:06.686Z,18.40
2018-05-03T08:47:07.613Z,18.70
2018-05-03T08:49:09.270Z,18.50
2018-05-03T08:51:10.945Z,18.50
2018-05-03T08:53:12.079Z,18.50
2018-05-03T08:55:13.761Z,18.80
2018-05-03T08:57:14.721Z,18.80
2018-05-03T08:59:15.666Z,18.90
2018-05-03T09:01:16.680Z,19.20
2018-05-03T09:03:17.557Z,18.70
2018-05-03T09:05:18.488Z,18.50
2018-05-03T09:07:19.437Z,18.90
2018-05-03T09:09:20.392Z,19.00
2018-05-03T09:11:21.341Z,18.90
2018-05-03T09:13:22.256Z,19.10
2018-05-03T09:15:23.932Z,19.00
2018-05-03T09:17:24.855Z,19.00
2018-05-03T09:19:26.530Z,19.30
2018-05-03T09:21:28.216Z,19.70
2018-05-03T09:23:29.160Z,19.70
2018-05-03T09:25:30.102Z,19.60
2018-05-03T09:27:31.043Z,19.80
2018-05-03T09:29:31.973Z,19.90
2018-05-03T09:31:33.658Z,20.60
2018-05-03T09:33:34.587Z,20.60
2018-05-03T09:35:36.264Z,19.60
2018-05-03T09:37:37.206Z,19.60
2018-05-03T09:39:38.168Z,19.60
2018-05-03T09:41:39.082Z,19.60
2018-05-03T09:43:40.768Z,19.40
2018-05-03T09:45:41.706Z,19.30
2018-05-03T09:47:42.633Z,19.40
2018-05-03T09:49:44.304Z,19.40
2018-05-03T09:51:45.225Z,19.40
2018-05-03T09:53:46.896Z,19.40
2018-05-03T09:55:48.566Z,19.10
2018-05-03T09:57:50.244Z,19.20
2018-05-03T09:59:51.184Z,19.20
2018-05-03T10:01:52.110Z,19.20
2018-05-03T10:03:53.773Z,19.00
2018-05-03T10:05:55.437Z,19.80
2018-05-03T10:07:57.100Z,19.50
2018-05-03T10:09:58.764Z,19.30
2018-05-03T10:12:00.435Z,19.40
2018-05-03T10:14:02.093Z,19.20
2018-05-03T10:16:03.778Z,19.00
2018-05-03T10:18:04.702Z,19.00
2018-05-03T10:20:06.413Z,18.80
2018-05-03T10:22:07.351Z,18.80
2018-05-03T10:24:08.284Z,18.90
2018-05-03T10:26:09.212Z,18.80
2018-05-03T10:28:10.136Z,18.40
2018-05-03T10:30:11.880Z,18.20
2018-05-03T10:32:12.756Z,18.20
2018-05-03T10:34:14.425Z,18.30
2018-05-03T10:36:15.368Z,18.20
2018-05-03T10:38:17.032Z,18.50
2018-05-03T10:40:18.350Z,18.50
2018-05-03T10:42:19.331Z,18.40
2018-05-03T10:44:20.222Z,18.60
2018-05-03T10:46:21.156Z,18.50
2018-05-03T10:48:22.087Z,18.40
2018-05-03T10:50:23.025Z,18.90
2018-05-03T10:52:24.697Z,20.20
2018-05-03T10:54:25.621Z,20.20
2018-05-03T10:56:26.536Z,20.50
2018-05-03T10:58:27.460Z,20.60
2018-05-03T11:00:28.388Z,21.10
2018-05-03T11:02:29.313Z,21.60
2018-05-03T11:04:30.240Z,21.40
2018-05-03T11:06:31.909Z,21.10
2018-05-03T11:08:32.848Z,21.10
2018-05-03T11:10:34.528Z,21.10
2018-05-03T11:12:35.449Z,21.10
2018-05-03T11:14:37.135Z,21.10
2018-05-03T11:16:38.119Z,21.10
2018-05-03T11:18:39.746Z,20.20
2018-05-03T11:20:40.680Z,20.10
2018-05-03T11:22:41.623Z,19.90
2018-05-03T11:24:42.548Z,19.60
2018-05-03T11:26:43.756Z,19.30
2018-05-03T11:28:44.700Z,19.30
2018-05-03T11:30:45.637Z,19.20
2018-05-03T11:32:46.581Z,18.90
2018-05-03T11:34:47.528Z,18.70
2018-05-03T11:36:48.552Z,18.90
2018-05-03T11:38:49.409Z,18.90
2018-05-03T11:40:50.349Z,19.00
2018-05-03T11:42:51.285Z,18.90
2018-05-03T11:44:52.223Z,18.80
2018-05-03T11:46:53.880Z,18.50
2018-05-03T11:48:55.544Z,18.80
2018-05-03T11:50:57.209Z,18.90
2018-05-03T11:52:58.132Z,18.90
2018-05-03T11:54:59.062Z,19.00
2018-05-03T11:56:59.985Z,19.10
2018-05-03T11:59:00.928Z,19.90
2018-05-03T12:01:01.861Z,20.50
2018-05-03T12:03:02.804Z,20.30
2018-05-03T12:05:04.493Z,20.10
2018-05-03T12:07:05.429Z,20.10
2018-05-03T12:09:06.377Z,20.20
2018-05-03T12:11:07.309Z,20.10
2018-05-03T12:13:08.245Z,20.10
2018-05-03T12:15:09.185Z,20.30
2018-05-03T12:17:10.102Z,20.70
2018-05-03T12:19:11.769Z,20.80
2018-05-03T12:21:13.442Z,21.90
2018-05-03T12:23:14.376Z,21.90
2018-05-03T12:25:16.044Z,21.60
2018-05-03T12:27:17.712Z,21.10
2018-05-03T12:29:18.656Z,21.10
2018-05-03T12:31:20.328Z,21.30
2018-05-03T12:33:21.260Z,21.30
2018-05-03T12:35:22.193Z,21.40
2018-05-03T12:37:23.893Z,21.60
2018-05-03T12:39:24.837Z,21.60
2018-05-03T12:41:25.764Z,21.70
2018-05-03T12:43:26.697Z,21.50
2018-05-03T12:45:28.387Z,22.60
2018-05-03T12:47:29.313Z,22.60
2018-05-03T12:49:30.240Z,22.10
2018-05-03T12:51:31.929Z,22.90
2018-05-03T12:53:32.857Z,22.80
2018-05-03T12:55:34.546Z,22.90
2018-05-03T12:57:35.469Z,22.90
2018-05-03T12:59:37.163Z,22.70
2018-05-03T13:01:38.126Z,22.70
2018-05-03T13:03:39.060Z,22.80
2018-05-03T13:05:39.997Z,22.60
2018-05-03T13:07:40.949Z,23.50
2018-05-03T13:09:41.901Z,22.90
2018-05-03T13:11:42.829Z,22.60
2018-05-03T13:13:43.761Z,23.10
2018-05-03T13:15:44.723Z,22.90
2018-05-03T13:17:45.646Z,22.70
2018-05-03T13:19:47.317Z,23.30
2018-05-03T13:21:48.244Z,23.30
2018-05-03T13:23:49.924Z,22.90
2018-05-03T13:25:50.862Z,22.90
2018-05-03T13:27:52.574Z,22.60
2018-05-03T13:29:53.513Z,22.60
2018-05-03T13:31:54.437Z,22.70
2018-05-03T13:33:55.372Z,22.90
2018-05-03T13:35:56.470Z,22.50
2018-05-03T13:37:57.401Z,22.50
2018-05-03T13:39:58.342Z,22.40
2018-05-03T13:41:59.298Z,22.50
2018-05-03T13:44:00.233Z,21.90
2018-05-03T13:46:01.187Z,22.10
2018-05-03T13:48:02.117Z,22.20
2018-05-03T13:50:03.037Z,22.30
2018-05-03T13:52:03.977Z,22.10
2018-05-03T13:54:04.902Z,22.10
2018-05-03T13:56:06.582Z,22.20
2018-05-03T13:58:07.534Z,22.10
2018-05-03T14:00:08.504Z,22.30
2018-05-03T14:02:09.509Z,22.20
2018-05-03T14:04:11.189Z,21.70
2018-05-03T14:06:12.118Z,21.60
2018-05-03T14:08:13.813Z,21.50
2018-05-03T14:10:14.759Z,21.50
2018-05-03T14:12:15.696Z,21.40
2018-05-03T14:14:16.635Z,21.40
2018-05-03T14:16:17.590Z,21.20
2018-05-03T14:18:18.529Z,21.60
2018-05-03T14:20:19.470Z,21.30
2018-05-03T14:22:20.438Z,21.30
2018-05-03T14:24:21.379Z,21.10
2018-05-03T14:26:22.334Z,20.60
2018-05-03T14:28:23.360Z,20.70
2018-05-03T14:30:24.384Z,20.00
2018-05-03T14:32:26.063Z,19.70
2018-05-03T14:34:27.722Z,19.40
2018-05-03T14:36:28.684Z,19.40
2018-05-03T14:38:29.614Z,19.20
2018-05-03T14:40:31.306Z,19.10
2018-05-03T14:42:32.241Z,19.10
2018-05-03T14:44:33.168Z,19.30
2018-05-03T14:46:34.097Z,19.60
2018-05-03T14:48:35.769Z,19.30
2018-05-03T14:50:37.442Z,19.30
2018-05-03T14:52:38.356Z,19.30
2018-05-03T14:54:39.295Z,19.40
2018-05-03T14:56:40.225Z,19.50
2018-05-03T14:58:41.161Z,19.40
2018-05-03T15:00:42.126Z,19.50
2018-05-03T15:02:43.072Z,19.60
2018-05-03T15:04:43.993Z,19.40
2018-05-03T15:06:44.916Z,19.20
2018-05-03T15:08:45.844Z,19.40
2018-05-03T15:10:47.509Z,19.30
2018-05-03T15:12:48.546Z,19.30
2018-05-03T15:14:50.117Z,19.00
2018-05-03T15:16:51.049Z,19.00
2018-05-03T15:18:52.729Z,18.90
2018-05-03T15:20:53.665Z,18.90
2018-05-03T15:22:55.330Z,18.80
2018-05-03T15:24:56.985Z,18.60
2018-05-03T15:26:58.653Z,18.50
2018-05-03T15:28:59.568Z,18.50
2018-05-03T15:31:00.514Z,18.40
2018-05-03T15:33:01.454Z,18.30
2018-05-03T15:35:02.376Z,18.10
2018-05-03T15:37:03.296Z,18.10
2018-05-03T15:39:04.217Z,18.00
2018-05-03T15:41:05.879Z,17.80
2018-05-03T15:43:07.550Z,17.70
2018-05-03T15:45:09.214Z,17.70
2018-05-03T15:47:10.136Z,17.70
2018-05-03T15:49:11.100Z,17.70
2018-05-03T15:51:12.821Z,17.60
2018-05-03T15:53:13.745Z,17.50
2018-05-03T15:55:14.661Z,17.50
2018-05-03T15:57:15.601Z,17.50
2018-05-03T15:59:16.521Z,17.50
2018-05-03T16:01:17.445Z,17.20
2018-05-03T16:03:18.360Z,17.20
2018-05-03T16:05:19.280Z,17.20
2018-05-03T16:07:20.945Z,17.20
2018-05-03T16:09:22.637Z,17.10
2018-05-03T16:11:23.565Z,17.10
2018-05-03T16:13:24.488Z,17.20
2018-05-03T16:15:26.160Z,17.20
2018-05-03T16:17:27.101Z,17.20
2018-05-03T16:19:28.777Z,17.10
2018-05-03T16:21:29.709Z,17.10
2018-05-03T16:23:31.370Z,17.10
2018-05-03T16:25:33.040Z,17.00
2018-05-03T16:27:33.982Z,17.00
2018-05-03T16:29:35.681Z,17.00
2018-05-03T16:31:36.605Z,17.00
2018-05-03T16:33:37.545Z,17.00
2018-05-03T16:35:38.461Z,16.70
2018-05-03T16:37:39.400Z,16.80
2018-05-03T16:39:40.332Z,16.80
2018-05-03T16:41:41.281Z,16.80
2018-05-03T16:43:42.189Z,16.90
2018-05-03T16:45:43.718Z,16.80
2018-05-03T16:47:44.641Z,16.80
2018-05-03T16:49:45.564Z,16.70
2018-05-03T16:51:46.495Z,16.50
2018-05-03T16:53:47.425Z,16.50
2018-05-03T16:55:48.340Z,16.50
2018-05-03T16:57:49.267Z,16.50
2018-05-03T16:59:50.293Z,16.50
2018-05-03T17:01:51.208Z,16.40
2018-05-03T17:03:52.126Z,16.30
2018-05-03T17:05:53.776Z,16.20
2018-05-03T17:07:55.457Z,16.10
2018-05-03T17:09:56.369Z,16.10
2018-05-03T17:11:57.293Z,16.10
2018-05-03T17:13:58.235Z,16.00
2018-05-03T17:15:59.148Z,15.90
2018-05-03T17:18:00.084Z,15.90
2018-05-03T17:20:01.000Z,15.80
2018-05-03T17:22:01.940Z,15.70
2018-05-03T17:24:02.877Z,15.60
2018-05-03T17:26:03.810Z,15.50
2018-05-03T17:28:04.728Z,15.40
2018-05-03T17:30:05.654Z,15.40
2018-05-03T17:32:07.358Z,15.30
2018-05-03T17:34:08.282Z,15.30
2018-05-03T17:36:09.196Z,15.20
2018-05-03T17:38:10.869Z,15.20
2018-05-03T17:40:11.811Z,15.20
2018-05-03T17:42:12.766Z,15.10
2018-05-03T17:44:13.697Z,15.10
2018-05-03T17:46:15.358Z,15.00
2018-05-03T17:48:17.048Z,15.00
2018-05-03T17:50:17.967Z,15.00
2018-05-03T17:52:19.659Z,15.00
2018-05-03T17:54:20.589Z,15.00
2018-05-03T17:56:21.525Z,14.90
2018-05-03T17:58:22.465Z,14.90
2018-05-03T18:00:24.451Z,14.90
2018-05-03T18:02:25.457Z,14.90
2018-05-03T18:04:26.529Z,14.90
2018-05-03T18:06:28.197Z,14.70
2018-05-03T18:08:29.873Z,14.60
2018-05-03T18:10:30.784Z,14.60
2018-05-03T18:12:31.749Z,14.60
2018-05-03T18:14:32.689Z,14.50
2018-05-03T18:16:34.358Z,14.40
2018-05-03T18:18:35.301Z,14.40
2018-05-03T18:20:36.962Z,14.30
2018-05-03T18:22:38.655Z,14.30
2018-05-03T18:24:39.606Z,14.30
2018-05-03T18:26:40.548Z,14.30
2018-05-03T18:28:42.221Z,14.10
2018-05-03T18:30:43.162Z,14.10
2018-05-03T18:32:44.171Z,14.00
2018-05-03T18:34:45.029Z,14.00
2018-05-03T18:36:45.970Z,13.80
2018-05-03T18:38:47.641Z,13.50
2018-05-03T18:40:48.574Z,13.50
2018-05-03T18:42:50.235Z,13.30
2018-05-03T18:44:51.901Z,13.30
2018-05-03T18:46:52.828Z,13.30
2018-05-03T18:48:54.494Z,13.20
2018-05-03T18:50:56.268Z,13.10
2018-05-03T18:52:57.926Z,13.00
2018-05-03T18:54:59.605Z,12.90
2018-05-03T18:57:00.525Z,12.90
2018-05-03T18:59:02.205Z,12.80
2018-05-03T19:01:07.165Z,12.80
2018-05-03T19:03:08.056Z,12.70
2018-05-03T19:05:08.998Z,12.80
2018-05-03T19:07:09.945Z,12.80
2018-05-03T19:09:10.881Z,12.80
2018-05-03T19:11:11.811Z,12.80
2018-05-03T19:13:12.767Z,12.80
2018-05-03T19:15:13.685Z,12.80
2018-05-03T19:17:14.625Z,12.70
2018-05-03T19:19:15.556Z,12.70
2018-05-03T19:21:16.494Z,12.80
2018-05-03T19:23:18.166Z,12.80
2018-05-03T19:25:19.074Z,12.70
2018-05-03T19:27:19.997Z,12.80
2018-05-03T19:29:20.964Z,12.80
2018-05-03T19:31:21.903Z,12.80
2018-05-03T19:33:22.825Z,12.70
2018-05-03T19:35:23.789Z,12.70
2018-05-03T19:37:24.685Z,12.60
2018-05-03T19:39:25.613Z,12.60
2018-05-03T19:41:27.281Z,12.60
2018-05-03T19:43:28.961Z,12.50
2018-05-03T19:45:29.915Z,12.50
2018-05-03T19:47:30.833Z,12.60
2018-05-03T19:49:33.521Z,12.40
2018-05-03T19:51:35.315Z,12.40
2018-05-03T19:53:36.275Z,12.30
2018-05-03T19:55:37.254Z,12.20
2018-05-03T19:57:38.252Z,12.20
2018-05-03T19:59:39.217Z,12.20
2018-05-03T20:01:40.185Z,12.10
2018-05-03T20:03:41.124Z,12.10
2018-05-03T20:05:42.070Z,12.10
2018-05-03T20:07:43.037Z,12.10
2018-05-03T20:09:43.965Z,12.00
2018-05-03T20:11:44.918Z,11.90
2018-05-03T20:13:45.901Z,11.90
2018-05-03T20:15:46.865Z,11.90
2018-05-03T20:17:47.785Z,11.90
2018-05-03T20:19:48.769Z,11.80
2018-05-03T20:21:49.800Z,11.80
2018-05-03T20:23:50.798Z,11.70
2018-05-03T20:25:51.748Z,11.70
2018-05-03T20:27:53.529Z,11.60
2018-05-03T20:29:55.246Z,11.60
2018-05-03T20:31:56.220Z,11.50
2018-05-03T20:33:57.232Z,11.50
2018-05-03T20:35:58.184Z,11.40
2018-05-03T20:37:59.656Z,11.40
2018-05-03T20:40:00.581Z,11.40
2018-05-03T20:42:01.561Z,11.30
2018-05-03T20:44:02.624Z,11.20
2018-05-03T20:46:04.376Z,11.20
2018-05-03T20:48:05.293Z,11.20
2018-05-03T20:50:06.266Z,11.20
2018-05-03T20:52:07.238Z,11.10
2018-05-03T20:54:08.122Z,11.10
2018-05-03T20:56:09.073Z,11.00
2018-05-03T20:58:10.014Z,10.90
2018-05-03T21:00:11.001Z,10.80
2018-05-03T21:02:12.676Z,10.70
2018-05-03T21:04:14.417Z,10.60
2018-05-03T21:06:15.366Z,10.60
2018-05-03T21:08:16.369Z,10.50
2018-05-03T21:10:17.325Z,10.50
2018-05-03T21:12:18.246Z,10.40
2018-05-03T21:14:19.829Z,10.30
2018-05-03T21:16:20.780Z,10.30
2018-05-03T21:18:21.693Z,10.20
2018-05-03T21:20:22.706Z,10.10
2018-05-03T21:22:23.691Z,10.10
2018-05-03T21:24:24.646Z,10.20
2018-05-03T21:26:25.702Z,10.10
2018-05-03T21:28:26.571Z,10.00
2018-05-03T21:30:27.567Z,9.90
2018-05-03T21:32:28.506Z,9.90
2018-05-03T21:34:29.541Z,9.80
2018-05-03T21:36:31.210Z,9.80
2018-05-03T21:38:32.949Z,9.80
2018-05-03T21:40:33.994Z,9.80
2018-05-03T21:42:34.932Z,9.80
2018-05-03T21:44:35.976Z,9.80
2018-05-03T21:46:36.969Z,9.70
2018-05-03T21:48:37.885Z,9.70
2018-05-03T21:50:38.837Z,9.70
2018-05-03T21:52:41.128Z,9.60
2018-05-03T21:54:42.821Z,9.50
2018-05-03T21:56:43.794Z,9.50
2018-05-03T21:58:44.729Z,9.50
2018-05-03T22:00:45.716Z,9.50
2018-05-03T22:02:47.391Z,9.50
2018-05-03T22:04:48.344Z,9.50
2018-05-03T22:06:49.344Z,9.50
2018-05-03T22:08:50.278Z,9.50
2018-05-03T22:10:51.207Z,9.40
2018-05-03T22:12:52.150Z,9.30
2018-05-03T22:14:53.683Z,9.20
2018-05-03T22:16:54.637Z,9.20
2018-05-03T22:18:55.589Z,9.20
2018-05-03T22:20:56.553Z,9.20
2018-05-03T22:22:57.488Z,9.10
2018-05-03T22:24:58.416Z,8.90
2018-05-03T22:26:59.333Z,8.90
2018-05-03T22:29:00.277Z,8.90
2018-05-03T22:31:01.257Z,9.00
2018-05-03T22:33:02.186Z,9.00
2018-05-03T22:35:03.900Z,9.00
2018-05-03T22:37:04.853Z,8.90
2018-05-03T22:39:05.792Z,8.90
2018-05-03T22:41:06.729Z,8.80
2018-05-03T22:43:07.704Z,8.90
2018-05-03T22:45:08.629Z,8.70
2018-05-03T22:47:09.572Z,8.70
2018-05-03T22:49:10.513Z,8.50
2018-05-03T22:51:11.679Z,8.40
2018-05-03T22:53:12.626Z,8.50
2018-05-03T22:55:13.663Z,8.50
2018-05-03T22:57:14.602Z,8.50
2018-05-03T22:59:15.561Z,8.60
2018-05-03T23:01:16.514Z,8.60
2018-05-03T23:03:17.493Z,8.60
2018-05-03T23:05:19.173Z,8.50
2018-05-03T23:07:20.114Z,8.50
2018-05-03T23:09:21.035Z,8.40
2018-05-03T23:11:22.814Z,8.40
2018-05-03T23:13:24.499Z,8.30
2018-05-03T23:15:25.436Z,8.20
2018-05-03T23:17:26.399Z,8.20
2018-05-03T23:19:27.366Z,8.20
2018-05-03T23:21:28.316Z,8.20
2018-05-03T23:23:29.274Z,8.20
2018-05-03T23:25:30.214Z,8.10
2018-05-03T23:27:31.178Z,8.10
2018-05-03T23:29:32.882Z,8.00
2018-05-03T23:31:33.806Z,8.00
2018-05-03T23:33:35.542Z,8.00
2018-05-03T23:35:36.474Z,8.00
2018-05-03T23:37:37.414Z,8.00
2018-05-03T23:39:38.422Z,7.90
2018-05-03T23:41:39.395Z,7.90
2018-05-03T23:43:40.346Z,7.90
2018-05-03T23:45:41.294Z,7.80
2018-05-03T23:47:42.270Z,7.70
2018-05-03T23:49:43.946Z,7.60
2018-05-03T23:51:45.634Z,7.50
2018-05-03T23:53:46.576Z,7.50
2018-05-03T23:55:47.586Z,7.60
2018-05-03T23:57:48.587Z,7.60
2018-05-03T23:59:49.526Z,7.60
